createdAt,value
2018-09-11T00:00:19.943Z,17.20
2018-09-11T00:02:51.819Z,17.10
2018-09-11T00:05:20.923Z,17.00
2018-09-11T00:07:52.707Z,16.90
2018-09-11T00:10:21.895Z,16.80
2018-09-11T00:12:55.433Z,16.80
2018-09-11T00:15:25.013Z,16.80
2018-09-11T00:17:58.162Z,16.70
2018-09-11T00:20:27.113Z,16.70
2018-09-11T00:22:59.058Z,16.70
2018-09-11T00:25:28.049Z,16.70
2018-09-11T00:28:00.887Z,16.60
2018-09-11T00:30:29.880Z,16.70
2018-09-11T00:33:01.662Z,16.70
2018-09-11T00:35:34.588Z,16.70
2018-09-11T00:38:07.099Z,16.70
2018-09-11T00:40:36.078Z,16.80
2018-09-11T00:43:08.030Z,16.80
2018-09-11T00:45:36.909Z,16.70
2018-09-11T00:48:08.842Z,16.70
2018-09-11T00:50:37.697Z,16.60
2018-09-11T00:53:09.761Z,16.60
2018-09-11T00:55:38.572Z,16.50
2018-09-11T00:58:10.698Z,16.50
2018-09-11T01:00:39.792Z,16.40
2018-09-11T01:03:13.291Z,16.40
2018-09-11T01:05:42.400Z,16.40
2018-09-11T01:08:15.028Z,16.50
2018-09-11T01:10:44.082Z,16.60
2018-09-11T01:13:15.952Z,16.50
2018-09-11T01:15:45.174Z,16.60
2018-09-11T01:18:17.792Z,16.60
2018-09-11T01:20:46.884Z,16.60
2018-09-11T01:23:20.553Z,16.60
2018-09-11T01:25:49.580Z,16.60
2018-09-11T01:28:22.220Z,16.60
2018-09-11T01:30:51.250Z,16.50
2018-09-11T01:33:23.937Z,16.50
2018-09-11T01:35:57.187Z,16.50
2018-09-11T01:38:30.272Z,16.50
2018-09-11T01:40:59.309Z,16.40
2018-09-11T01:43:32.740Z,16.40
2018-09-11T01:46:01.830Z,16.40
2018-09-11T01:48:33.887Z,16.30
2018-09-11T01:51:03.009Z,16.30
2018-09-11T01:53:35.735Z,16.30
2018-09-11T01:56:04.877Z,16.20
2018-09-11T01:58:38.349Z,16.20
2018-09-11T02:01:07.919Z,16.10
2018-09-11T02:03:40.118Z,16.20
2018-09-11T02:06:09.166Z,16.10
2018-09-11T02:08:42.231Z,16.20
2018-09-11T02:11:11.489Z,16.10
2018-09-11T02:13:43.710Z,16.10
2018-09-11T02:16:13.723Z,16.10
2018-09-11T02:18:47.410Z,16.00
2018-09-11T02:21:16.481Z,16.00
2018-09-11T02:23:49.091Z,16.00
2018-09-11T02:26:18.739Z,16.00
2018-09-11T02:28:50.964Z,15.90
2018-09-11T02:31:20.063Z,15.90
2018-09-11T02:33:52.667Z,15.90
2018-09-11T02:36:24.694Z,15.80
2018-09-11T02:38:57.219Z,15.80
2018-09-11T02:41:27.079Z,15.80
2018-09-11T02:44:03.952Z,15.80
2018-09-11T02:46:33.278Z,15.70
2018-09-11T02:49:06.134Z,15.70
2018-09-11T02:51:35.779Z,15.70
2018-09-11T02:54:08.029Z,15.70
2018-09-11T02:56:36.985Z,15.70
2018-09-11T02:59:08.918Z,15.70
2018-09-11T03:01:37.973Z,15.70
2018-09-11T03:04:11.553Z,15.70
2018-09-11T03:06:40.485Z,15.70
2018-09-11T03:09:13.294Z,15.70
2018-09-11T03:11:42.243Z,15.70
2018-09-11T03:14:23.773Z,15.70
2018-09-11T03:16:52.844Z,15.70
2018-09-11T03:19:25.111Z,15.70
2018-09-11T03:21:54.010Z,15.70
2018-09-11T03:24:26.829Z,15.70
2018-09-11T03:26:55.804Z,15.70
2018-09-11T03:29:27.718Z,15.70
2018-09-11T03:31:56.837Z,15.70
2018-09-11T03:34:30.448Z,15.80
2018-09-11T03:37:02.646Z,15.70
2018-09-11T03:39:35.212Z,15.80
2018-09-11T03:42:04.520Z,15.80
2018-09-11T03:44:36.712Z,15.80
2018-09-11T03:47:06.063Z,15.90
2018-09-11T03:49:39.354Z,15.80
2018-09-11T03:52:08.381Z,15.80
2018-09-11T03:54:40.334Z,15.70
2018-09-11T03:57:09.297Z,15.70
2018-09-11T03:59:41.086Z,15.70
2018-09-11T04:02:10.150Z,15.70
2018-09-11T04:04:41.952Z,15.70
2018-09-11T04:07:10.800Z,15.70
2018-09-11T04:09:43.022Z,15.70
2018-09-11T04:12:11.970Z,15.70
2018-09-11T04:14:43.741Z,15.70
2018-09-11T04:17:12.900Z,15.70
2018-09-11T04:19:45.589Z,15.70
2018-09-11T04:22:14.384Z,15.60
2018-09-11T04:24:47.396Z,15.70
2018-09-11T04:27:16.282Z,15.70
2018-09-11T04:29:48.244Z,15.70
2018-09-11T04:32:17.312Z,15.70
2018-09-11T04:34:49.048Z,15.70
2018-09-11T04:37:22.067Z,15.70
2018-09-11T04:39:55.387Z,15.70
2018-09-11T04:42:24.457Z,15.80
2018-09-11T04:44:56.429Z,15.80
2018-09-11T04:47:25.539Z,15.80
2018-09-11T04:49:58.830Z,15.80
2018-09-11T04:52:28.072Z,15.80
2018-09-11T04:55:00.806Z,15.80
2018-09-11T04:57:29.820Z,15.80
2018-09-11T05:00:02.584Z,15.80
2018-09-11T05:02:31.644Z,15.80
2018-09-11T05:05:04.314Z,15.90
2018-09-11T05:07:33.420Z,15.90
2018-09-11T05:10:10.287Z,15.90
2018-09-11T05:12:43.493Z,16.00
2018-09-11T05:15:16.091Z,16.00
2018-09-11T05:17:45.182Z,16.10
2018-09-11T05:20:18.187Z,16.20
2018-09-11T05:22:47.481Z,16.20
2018-09-11T05:25:20.581Z,16.30
2018-09-11T05:27:49.756Z,16.30
2018-09-11T05:30:22.276Z,16.40
2018-09-11T05:32:51.360Z,16.40
2018-09-11T05:35:23.303Z,16.40
2018-09-11T05:38:07.000Z,16.50
2018-09-11T05:40:53.837Z,16.50
2018-09-11T05:43:38.144Z,16.60
2018-09-11T05:46:29.767Z,16.60
2018-09-11T05:49:14.341Z,16.60
2018-09-11T05:52:03.136Z,16.70
2018-09-11T05:54:47.044Z,16.70
2018-09-11T05:57:33.893Z,16.80
2018-09-11T06:00:18.193Z,16.80
2018-09-11T06:03:07.391Z,16.90
2018-09-11T06:05:51.342Z,16.90
2018-09-11T06:08:38.178Z,16.90
2018-09-11T06:11:22.320Z,17.00
2018-09-11T06:14:10.044Z,17.00
2018-09-11T06:16:54.118Z,17.10
2018-09-11T06:19:42.549Z,17.20
2018-09-11T06:22:26.693Z,17.20
2018-09-11T06:25:13.384Z,17.30
2018-09-11T06:27:56.934Z,17.30
2018-09-11T06:30:44.968Z,17.30
2018-09-11T06:33:28.605Z,17.40
2018-09-11T06:36:16.655Z,17.40
2018-09-11T06:39:00.805Z,17.50
2018-09-11T06:41:48.351Z,17.50
2018-09-11T06:44:31.956Z,17.60
2018-09-11T06:47:19.177Z,17.70
2018-09-11T06:50:03.444Z,17.80
2018-09-11T06:52:50.759Z,17.90
2018-09-11T06:55:34.833Z,17.90
2018-09-11T06:58:23.447Z,18.00
2018-09-11T07:01:07.260Z,18.00
2018-09-11T07:03:54.156Z,18.10
2018-09-11T07:06:38.204Z,18.10
2018-09-11T07:09:25.964Z,18.10
2018-09-11T07:12:09.997Z,18.20
2018-09-11T07:14:58.565Z,18.30
2018-09-11T07:17:42.391Z,18.40
2018-09-11T07:20:29.359Z,18.50
2018-09-11T07:23:13.207Z,18.70
2018-09-11T07:26:00.998Z,18.80
2018-09-11T07:28:45.005Z,18.90
2018-09-11T07:31:37.204Z,19.00
2018-09-11T07:34:21.351Z,19.20
2018-09-11T07:37:08.840Z,19.40
2018-09-11T07:39:52.403Z,19.60
2018-09-11T07:42:40.646Z,19.80
2018-09-11T07:45:24.826Z,20.20
2018-09-11T07:48:12.251Z,20.50
2018-09-11T07:50:56.366Z,20.80
2018-09-11T07:53:43.074Z,21.00
2018-09-11T07:56:26.529Z,21.10
2018-09-11T07:59:13.785Z,21.10
2018-09-11T08:01:57.607Z,21.00
2018-09-11T08:04:45.529Z,21.00
2018-09-11T08:08:01.808Z,21.00
2018-09-11T08:10:48.986Z,20.90
2018-09-11T08:13:33.128Z,20.90
2018-09-11T08:16:21.520Z,21.00
2018-09-11T08:19:05.771Z,21.00
2018-09-11T08:21:53.150Z,21.30
2018-09-11T08:24:37.893Z,21.40
2018-09-11T08:27:24.977Z,21.70
2018-09-11T08:30:08.812Z,22.00
2018-09-11T08:32:56.700Z,22.50
2018-09-11T08:35:40.069Z,22.80
2018-09-11T08:38:28.244Z,22.70
2018-09-11T08:41:12.378Z,23.00
2018-09-11T08:43:59.005Z,23.10
2018-09-11T08:46:43.086Z,23.60
2018-09-11T08:49:29.882Z,24.00
2018-09-11T08:52:13.581Z,23.80
2018-09-11T08:55:01.611Z,24.00
2018-09-11T08:57:44.958Z,24.20
2018-09-11T09:00:31.425Z,24.20
2018-09-11T09:03:15.352Z,24.10
2018-09-11T09:06:03.095Z,24.20
2018-09-11T09:08:46.649Z,24.40
2018-09-11T09:11:33.012Z,24.50
2018-09-11T09:14:16.446Z,24.50
2018-09-11T09:17:04.717Z,24.50
2018-09-11T09:19:49.968Z,24.80
2018-09-11T09:22:36.432Z,24.90
2018-09-11T09:25:20.738Z,24.60
2018-09-11T09:28:07.180Z,25.10
2018-09-11T09:30:51.274Z,25.20
2018-09-11T09:33:37.976Z,25.50
2018-09-11T09:36:23.122Z,25.60
2018-09-11T09:39:11.565Z,25.60
2018-09-11T09:41:55.516Z,24.80
2018-09-11T09:44:43.242Z,24.90
2018-09-11T09:47:27.345Z,24.60
2018-09-11T09:50:15.962Z,24.40
2018-09-11T09:53:00.086Z,24.40
2018-09-11T09:55:48.199Z,24.60
2018-09-11T09:58:31.923Z,24.70
2018-09-11T10:01:24.620Z,24.80
2018-09-11T10:04:08.942Z,24.70
2018-09-11T10:06:57.352Z,24.60
2018-09-11T10:09:40.856Z,24.60
2018-09-11T10:12:27.994Z,24.50
2018-09-11T10:15:12.109Z,24.40
2018-09-11T10:17:59.805Z,24.80
2018-09-11T10:20:44.320Z,25.00
2018-09-11T10:23:31.693Z,24.90
2018-09-11T10:26:15.605Z,24.70
2018-09-11T10:29:08.053Z,24.80
2018-09-11T10:31:53.979Z,25.20
2018-09-11T10:34:48.326Z,25.40
2018-09-11T10:37:36.139Z,25.60
2018-09-11T10:40:09.198Z,25.80
2018-09-11T10:42:38.448Z,26.00
2018-09-11T10:45:11.007Z,26.00
2018-09-11T10:47:40.075Z,26.20
2018-09-11T10:50:13.668Z,26.50
2018-09-11T10:52:43.281Z,27.00
2018-09-11T10:55:15.416Z,27.20
2018-09-11T10:57:45.237Z,27.60
2018-09-11T11:00:17.338Z,27.60
2018-09-11T11:02:47.889Z,27.70
2018-09-11T11:05:22.958Z,27.50
2018-09-11T11:08:22.788Z,27.80
2018-09-11T11:10:55.273Z,27.70
2018-09-11T11:13:27.313Z,27.70
2018-09-11T11:16:00.685Z,27.70
2018-09-11T11:18:29.950Z,27.80
2018-09-11T11:21:02.836Z,27.80
2018-09-11T11:23:31.992Z,28.20
2018-09-11T11:26:04.357Z,28.10
2018-09-11T11:28:33.529Z,28.20
2018-09-11T11:31:06.255Z,28.60
2018-09-11T11:33:35.509Z,28.60
2018-09-11T11:36:09.631Z,28.70
2018-09-11T11:38:41.840Z,28.60
2018-09-11T11:41:14.205Z,28.40
2018-09-11T11:43:43.523Z,28.50
2018-09-11T11:46:16.906Z,28.30
2018-09-11T11:48:46.513Z,27.50
2018-09-11T11:51:18.670Z,27.70
2018-09-11T11:53:47.874Z,27.80
2018-09-11T11:56:21.075Z,27.70
2018-09-11T11:58:50.276Z,27.90
2018-09-11T12:01:22.236Z,28.10
2018-09-11T12:03:52.463Z,28.10
2018-09-11T12:06:25.901Z,28.10
2018-09-11T12:08:54.957Z,28.40
2018-09-11T12:11:27.520Z,28.20
2018-09-11T12:13:56.542Z,28.10
2018-09-11T12:16:29.408Z,27.90
2018-09-11T12:18:58.748Z,28.00
2018-09-11T12:21:31.130Z,28.10
2018-09-11T12:24:00.699Z,28.20
2018-09-11T12:26:34.981Z,28.20
2018-09-11T12:29:04.109Z,28.00
2018-09-11T12:31:36.528Z,27.80
2018-09-11T12:34:18.484Z,28.20
2018-09-11T12:36:52.909Z,28.50
2018-09-11T12:39:25.650Z,28.30
2018-09-11T12:41:58.322Z,28.40
2018-09-11T12:44:27.574Z,28.80
2018-09-11T12:47:05.421Z,29.40
2018-09-11T12:49:38.995Z,29.70
2018-09-11T12:52:13.523Z,29.60
2018-09-11T12:54:42.906Z,29.00
2018-09-11T12:57:16.347Z,28.70
2018-09-11T12:59:45.531Z,29.10
2018-09-11T13:02:19.300Z,28.70
2018-09-11T13:04:48.351Z,29.10
2018-09-11T13:07:21.627Z,29.20
2018-09-11T13:09:50.757Z,29.40
2018-09-11T13:12:23.683Z,29.70
2018-09-11T13:14:52.764Z,30.20
2018-09-11T13:17:25.187Z,30.10
2018-09-11T13:19:54.726Z,30.40
2018-09-11T13:22:28.007Z,30.00
2018-09-11T13:24:57.125Z,29.90
2018-09-11T13:27:29.706Z,29.50
2018-09-11T13:29:58.899Z,29.70
2018-09-11T13:32:31.471Z,29.60
2018-09-11T13:35:00.678Z,29.10
2018-09-11T13:37:33.399Z,29.30
2018-09-11T13:40:14.750Z,29.50
2018-09-11T13:42:47.725Z,29.70
2018-09-11T13:45:16.872Z,30.10
2018-09-11T13:47:51.551Z,29.70
2018-09-11T13:50:21.241Z,29.40
2018-09-11T13:52:55.068Z,29.60
2018-09-11T13:55:25.377Z,29.40
2018-09-11T13:58:05.104Z,29.40
2018-09-11T14:00:34.140Z,29.10
2018-09-11T14:03:07.721Z,28.70
2018-09-11T14:05:36.892Z,29.00
2018-09-11T14:08:10.660Z,28.60
2018-09-11T14:10:45.987Z,28.70
2018-09-11T14:13:18.598Z,28.70
2018-09-11T14:15:48.903Z,28.40
2018-09-11T14:18:22.061Z,28.30
2018-09-11T14:20:50.934Z,28.30
2018-09-11T14:23:24.646Z,27.90
2018-09-11T14:26:04.458Z,27.60
2018-09-11T14:28:37.432Z,27.70
2018-09-11T14:31:19.253Z,27.60
2018-09-11T14:33:53.808Z,27.60
2018-09-11T14:36:29.987Z,27.40
2018-09-11T14:39:12.862Z,27.10
2018-09-11T14:41:44.812Z,27.10
2018-09-11T14:44:17.988Z,27.10
2018-09-11T14:46:46.895Z,27.10
2018-09-11T14:49:19.706Z,26.90
2018-09-11T14:51:49.919Z,26.90
2018-09-11T14:54:22.452Z,26.60
2018-09-11T14:56:51.393Z,26.50
2018-09-11T14:59:23.388Z,26.50
2018-09-11T15:01:52.237Z,26.60
2018-09-11T15:04:24.240Z,26.40
2018-09-11T15:06:54.028Z,26.30
2018-09-11T15:09:26.980Z,26.20
2018-09-11T15:11:56.961Z,26.10
2018-09-11T15:14:28.641Z,26.00
2018-09-11T15:16:58.153Z,26.10
2018-09-11T15:19:30.575Z,26.00
2018-09-11T15:22:00.124Z,26.00
2018-09-11T15:24:32.642Z,26.00
2018-09-11T15:27:01.621Z,25.90
2018-09-11T15:29:35.170Z,25.70
2018-09-11T15:32:04.409Z,25.60
2018-09-11T15:34:37.779Z,25.60
2018-09-11T15:37:07.159Z,25.60
2018-09-11T15:39:41.026Z,25.40
2018-09-11T15:42:14.532Z,25.40
2018-09-11T15:44:46.585Z,25.50
2018-09-11T15:47:15.345Z,25.40
2018-09-11T15:49:47.533Z,25.40
2018-09-11T15:52:16.646Z,25.40
2018-09-11T15:54:49.370Z,25.40
2018-09-11T15:57:18.155Z,25.50
2018-09-11T15:59:50.136Z,25.60
2018-09-11T16:02:19.800Z,25.60
2018-09-11T16:04:52.813Z,25.40
2018-09-11T16:07:21.393Z,25.30
2018-09-11T16:09:54.590Z,25.20
2018-09-11T16:12:23.453Z,25.20
2018-09-11T16:14:55.529Z,25.20
2018-09-11T16:17:24.249Z,25.10
2018-09-11T16:19:56.429Z,25.20
2018-09-11T16:22:25.019Z,25.10
2018-09-11T16:25:01.259Z,25.20
2018-09-11T16:27:30.013Z,25.20
2018-09-11T16:30:06.411Z,25.20
2018-09-11T16:32:34.997Z,25.10
2018-09-11T16:35:07.230Z,25.10
2018-09-11T16:37:36.784Z,25.10
2018-09-11T16:40:09.819Z,25.10
2018-09-11T16:42:41.553Z,25.00
2018-09-11T16:45:13.515Z,25.00
2018-09-11T16:47:42.172Z,25.10
2018-09-11T16:50:14.405Z,25.00
2018-09-11T16:52:42.900Z,25.00
2018-09-11T16:55:11.453Z,25.00
2018-09-11T16:57:43.809Z,24.90
2018-09-11T17:00:12.496Z,24.80
2018-09-11T17:02:45.577Z,24.70
2018-09-11T17:05:14.256Z,24.60
2018-09-11T17:07:46.533Z,24.60
2018-09-11T17:10:15.464Z,24.50
2018-09-11T17:12:49.188Z,24.40
2018-09-11T17:15:17.802Z,24.30
2018-09-11T17:17:51.072Z,24.30
2018-09-11T17:20:19.819Z,24.30
2018-09-11T17:22:53.326Z,24.10
2018-09-11T17:25:21.917Z,24.10
2018-09-11T17:27:53.596Z,24.00
2018-09-11T17:30:22.234Z,24.00
2018-09-11T17:32:54.475Z,23.90
2018-09-11T17:35:23.086Z,23.70
2018-09-11T17:37:55.421Z,23.50
2018-09-11T17:40:24.106Z,23.50
2018-09-11T17:43:00.047Z,23.40
2018-09-11T17:45:28.875Z,23.30
2018-09-11T17:48:02.204Z,23.20
2018-09-11T17:50:32.200Z,23.10
2018-09-11T17:53:04.442Z,22.90
2018-09-11T17:55:33.089Z,22.80
2018-09-11T17:58:06.223Z,22.60
2018-09-11T18:00:34.809Z,22.50
2018-09-11T18:03:08.022Z,22.40
2018-09-11T18:05:36.704Z,22.20
2018-09-11T18:08:09.694Z,22.10
2018-09-11T18:10:39.229Z,22.00
2018-09-11T18:13:14.242Z,21.90
2018-09-11T18:15:43.752Z,21.80
2018-09-11T18:18:16.912Z,21.80
2018-09-11T18:20:46.676Z,21.70
2018-09-11T18:23:19.664Z,21.60
2018-09-11T18:25:48.891Z,21.60
2018-09-11T18:28:21.473Z,21.60
2018-09-11T18:30:50.212Z,21.60
2018-09-11T18:33:22.325Z,21.60
2018-09-11T18:35:51.102Z,21.60
2018-09-11T18:38:24.176Z,21.60
2018-09-11T18:40:52.890Z,21.70
2018-09-11T18:43:27.617Z,21.60
2018-09-11T18:45:56.218Z,21.50
2018-09-11T18:48:28.546Z,21.30
2018-09-11T18:50:57.471Z,21.40
2018-09-11T18:53:33.063Z,21.50
2018-09-11T18:56:01.771Z,21.50
2018-09-11T18:58:34.980Z,21.40
2018-09-11T19:01:03.724Z,21.40
2018-09-11T19:03:35.753Z,21.50
2018-09-11T19:06:04.421Z,21.50
2018-09-11T19:08:36.586Z,21.50
2018-09-11T19:11:05.245Z,21.40
2018-09-11T19:13:37.470Z,21.40
2018-09-11T19:16:06.192Z,21.40
2018-09-11T19:18:38.426Z,21.60
2018-09-11T19:21:07.219Z,21.50
2018-09-11T19:23:39.173Z,21.40
2018-09-11T19:26:07.902Z,21.30
2018-09-11T19:28:41.141Z,21.30
2018-09-11T19:31:09.924Z,21.30
2018-09-11T19:33:42.903Z,21.40
2018-09-11T19:36:11.907Z,21.50
2018-09-11T19:38:48.169Z,21.60
2018-09-11T19:41:17.286Z,21.60
2018-09-11T19:43:52.807Z,21.60
2018-09-11T19:46:21.413Z,21.70
2018-09-11T19:48:53.595Z,21.70
2018-09-11T19:51:24.090Z,21.70
2018-09-11T19:53:56.361Z,21.80
2018-09-11T19:56:24.959Z,21.80
2018-09-11T19:58:58.137Z,21.70
2018-09-11T20:01:26.695Z,21.60
2018-09-11T20:03:59.806Z,21.60
2018-09-11T20:06:28.513Z,21.50
2018-09-11T20:09:00.682Z,21.40
2018-09-11T20:11:29.506Z,21.30
2018-09-11T20:14:01.621Z,21.20
2018-09-11T20:16:30.207Z,21.10
2018-09-11T20:18:58.774Z,21.00
2018-09-11T20:21:31.153Z,21.00
2018-09-11T20:23:59.779Z,20.90
2018-09-11T20:26:32.960Z,20.80
2018-09-11T20:29:01.636Z,20.80
2018-09-11T20:31:33.735Z,20.80
2018-09-11T20:37:36.339Z,20.70
2018-09-11T20:40:05.082Z,20.70
2018-09-11T20:42:38.125Z,20.70
2018-09-11T20:45:09.955Z,20.70
2018-09-11T20:47:41.767Z,20.60
2018-09-11T20:50:11.325Z,20.50
2018-09-11T20:52:44.424Z,20.50
2018-09-11T20:55:13.458Z,20.50
2018-09-11T20:57:45.357Z,20.60
2018-09-11T21:00:14.160Z,20.60
2018-09-11T21:02:47.905Z,20.60
2018-09-11T21:05:16.670Z,20.70
2018-09-11T21:07:48.786Z,20.70
2018-09-11T21:10:17.550Z,20.60
2018-09-11T21:12:50.664Z,20.70
2018-09-11T21:15:19.352Z,20.70
2018-09-11T21:18:07.762Z,20.70
2018-09-11T21:20:36.429Z,20.70
2018-09-11T21:23:10.112Z,20.60
2018-09-11T21:25:38.853Z,20.60
2018-09-11T21:28:10.530Z,20.60
2018-09-11T21:30:39.116Z,20.60
2018-09-11T21:33:11.367Z,20.60
2018-09-11T21:35:40.086Z,20.60
2018-09-11T21:38:13.133Z,20.60
2018-09-11T21:40:42.017Z,20.60
2018-09-11T21:43:15.000Z,20.60
2018-09-11T21:45:46.760Z,20.60
2018-09-11T21:48:18.561Z,20.50
2018-09-11T21:50:47.943Z,20.40
2018-09-11T21:53:19.420Z,20.30
2018-09-11T21:55:48.142Z,20.10
2018-09-11T21:58:21.225Z,20.10
2018-09-11T22:00:55.342Z,20.10
2018-09-11T22:03:28.434Z,20.10
2018-09-11T22:05:57.359Z,20.10
2018-09-11T22:08:30.192Z,20.10
2018-09-11T22:10:59.780Z,20.00
2018-09-11T22:13:32.844Z,20.10
2018-09-11T22:16:01.460Z,20.00
2018-09-11T22:18:33.732Z,19.90
2018-09-11T22:21:02.341Z,19.80
2018-09-11T22:23:34.613Z,19.70
2018-09-11T22:26:03.348Z,19.70
2018-09-11T22:28:35.483Z,19.60
2018-09-11T22:31:04.114Z,19.70
2018-09-11T22:33:36.342Z,19.60
2018-09-11T22:36:05.740Z,19.60
2018-09-11T22:38:38.134Z,19.50
2018-09-11T22:41:06.770Z,19.40
2018-09-11T22:43:39.898Z,19.40
2018-09-11T22:46:11.864Z,19.40
2018-09-11T22:48:43.608Z,19.40
2018-09-11T22:51:12.271Z,19.40
2018-09-11T22:53:44.469Z,19.30
2018-09-11T22:56:15.547Z,19.30
2018-09-11T22:58:48.113Z,19.30
2018-09-11T23:01:16.768Z,19.30
2018-09-11T23:03:52.539Z,19.20
2018-09-11T23:06:21.309Z,19.30
2018-09-11T23:08:53.400Z,19.20
2018-09-11T23:11:22.212Z,19.20
2018-09-11T23:13:55.224Z,19.20
2018-09-11T23:16:23.853Z,19.10
2018-09-11T23:18:56.968Z,19.10
2018-09-11T23:21:26.320Z,19.20
2018-09-11T23:23:58.732Z,19.10
2018-09-11T23:26:27.348Z,19.10
2018-09-11T23:28:59.678Z,19.10
2018-09-11T23:31:28.338Z,19.10
2018-09-11T23:34:00.483Z,19.20
2018-09-11T23:36:29.113Z,19.20
2018-09-11T23:39:01.426Z,19.20
2018-09-11T23:41:30.042Z,19.20
2018-09-11T23:44:03.325Z,19.20
2018-09-11T23:46:34.896Z,19.20
2018-09-11T23:49:06.738Z,19.20
2018-09-11T23:51:35.337Z,19.30
2018-09-11T23:54:07.624Z,19.30
2018-09-11T23:56:36.393Z,19.30
2018-09-11T23:59:09.522Z,19.30
